sensor_id;sensor_type;location;lat;lon;timestamp;temperature;humidity
72883;DHT22;61017;37.812;-122.286;2023-09-19T00:00:02;25.10;57.20
72883;DHT22;61017;37.812;-122.286;2023-09-19T00:01:34;25.10;57.40
72883;DHT22;61017;37.812;-122.286;2023-09-19T00:03:06;25.10;57.20
72883;DHT22;61017;37.812;-122.286;2023-09-19T00:04:37;25.10;57.30
72883;DHT22;61017;37.812;-122.286;2023-09-19T00:06:09;25.00;57.30
72883;DHT22;61017;37.812;-122.286;2023-09-19T00:07:41;25.10;57.10
72883;DHT22;61017;37.812;-122.286;2023-09-19T00:09:12;25.10;57.10
72883;DHT22;61017;37.812;-122.286;2023-09-19T00:10:44;25.10;56.90
72883;DHT22;61017;37.812;-122.286;2023-09-19T00:12:15;25.10;56.80
72883;DHT22;61017;37.812;-122.286;2023-09-19T00:13:50;25.10;56.90
72883;DHT22;61017;37.812;-122.286;2023-09-19T00:15:24;25.10;56.70
72883;DHT22;61017;37.812;-122.286;2023-09-19T00:16:56;25.10;56.50
72883;DHT22;61017;37.812;-122.286;2023-09-19T00:18:27;25.20;56.60
72883;DHT22;61017;37.812;-122.286;2023-09-19T00:19:59;25.20;56.90
72883;DHT22;61017;37.812;-122.286;2023-09-19T00:21:32;25.10;56.60
72883;DHT22;61017;37.812;-122.286;2023-09-19T00:23:04;25.10;56.90
72883;DHT22;61017;37.812;-122.286;2023-09-19T00:24:36;25.20;56.60
72883;DHT22;61017;37.812;-122.286;2023-09-19T00:26:07;25.10;56.80
72883;DHT22;61017;37.812;-122.286;2023-09-19T00:27:39;25.20;56.60
72883;DHT22;61017;37.812;-122.286;2023-09-19T00:29:11;25.20;56.40
72883;DHT22;61017;37.812;-122.286;2023-09-19T00:30:46;25.20;56.10
72883;DHT22;61017;37.812;-122.286;2023-09-19T00:32:18;25.20;56.10
72883;DHT22;61017;37.812;-122.286;2023-09-19T00:33:49;25.20;56.10
72883;DHT22;61017;37.812;-122.286;2023-09-19T00:35:21;25.20;56.30
72883;DHT22;61017;37.812;-122.286;2023-09-19T00:36:53;25.20;56.00
72883;DHT22;61017;37.812;-122.286;2023-09-19T00:38:24;25.20;55.90
72883;DHT22;61017;37.812;-122.286;2023-09-19T00:39:56;25.20;56.20
72883;DHT22;61017;37.812;-122.286;2023-09-19T00:41:28;25.20;55.90
72883;DHT22;61017;37.812;-122.286;2023-09-19T00:42:59;25.20;56.30
72883;DHT22;61017;37.812;-122.286;2023-09-19T00:44:31;25.20;57.40
72883;DHT22;61017;37.812;-122.286;2023-09-19T00:46:02;25.10;57.10
72883;DHT22;61017;37.812;-122.286;2023-09-19T00:47:35;25.20;57.20
72883;DHT22;61017;37.812;-122.286;2023-09-19T00:49:08;25.20;58.70
72883;DHT22;61017;37.812;-122.286;2023-09-19T00:50:41;25.10;59.90
72883;DHT22;61017;37.812;-122.286;2023-09-19T00:52:13;25.10;58.70
72883;DHT22;61017;37.812;-122.286;2023-09-19T00:53:46;25.20;57.80
72883;DHT22;61017;37.812;-122.286;2023-09-19T00:55:18;25.20;57.40
72883;DHT22;61017;37.812;-122.286;2023-09-19T00:56:49;25.20;56.90
72883;DHT22;61017;37.812;-122.286;2023-09-19T00:58:21;25.30;56.50
72883;DHT22;61017;37.812;-122.286;2023-09-19T00:59:55;25.40;56.40
72883;DHT22;61017;37.812;-122.286;2023-09-19T01:01:27;25.40;56.00
72883;DHT22;61017;37.812;-122.286;2023-09-19T01:02:59;25.40;55.80
72883;DHT22;61017;37.812;-122.286;2023-09-19T01:04:31;25.40;55.70
72883;DHT22;61017;37.812;-122.286;2023-09-19T01:06:02;25.40;55.50
72883;DHT22;61017;37.812;-122.286;2023-09-19T01:07:34;25.40;55.40
72883;DHT22;61017;37.812;-122.286;2023-09-19T01:09:06;25.40;55.40
72883;DHT22;61017;37.812;-122.286;2023-09-19T01:11:01;25.40;55.10
72883;DHT22;61017;37.812;-122.286;2023-09-19T01:14:39;25.40;54.80
72883;DHT22;61017;37.812;-122.286;2023-09-19T01:16:33;25.40;54.60
72883;DHT22;61017;37.812;-122.286;2023-09-19T01:18:27;25.40;54.60
72883;DHT22;61017;37.812;-122.286;2023-09-19T01:23:59;25.30;54.30
72883;DHT22;61017;37.812;-122.286;2023-09-19T01:26:06;25.30;54.20
72883;DHT22;61017;37.812;-122.286;2023-09-19T01:29:45;25.40;54.10
72883;DHT22;61017;37.812;-122.286;2023-09-19T01:31:18;25.40;54.10
72883;DHT22;61017;37.812;-122.286;2023-09-19T01:32:52;25.30;54.00
72883;DHT22;61017;37.812;-122.286;2023-09-19T01:34:23;25.40;54.00
72883;DHT22;61017;37.812;-122.286;2023-09-19T01:35:55;25.30;54.10
72883;DHT22;61017;37.812;-122.286;2023-09-19T01:37:26;25.30;54.20
72883;DHT22;61017;37.812;-122.286;2023-09-19T01:38:59;25.30;53.90
72883;DHT22;61017;37.812;-122.286;2023-09-19T01:40:31;25.30;54.00
72883;DHT22;61017;37.812;-122.286;2023-09-19T01:42:16;25.40;54.10
72883;DHT22;61017;37.812;-122.286;2023-09-19T01:43:49;25.30;54.30
72883;DHT22;61017;37.812;-122.286;2023-09-19T01:47:04;25.30;54.30
72883;DHT22;61017;37.812;-122.286;2023-09-19T01:48:46;25.30;54.30
72883;DHT22;61017;37.812;-122.286;2023-09-19T01:52:12;25.30;54.50
72883;DHT22;61017;37.812;-122.286;2023-09-19T01:53:51;25.30;54.30
72883;DHT22;61017;37.812;-122.286;2023-09-19T01:55:26;25.30;54.40
72883;DHT22;61017;37.812;-122.286;2023-09-19T01:57:09;25.30;54.20
72883;DHT22;61017;37.812;-122.286;2023-09-19T01:58:51;25.20;56.90
72883;DHT22;61017;37.812;-122.286;2023-09-19T02:00:26;24.80;58.50
72883;DHT22;61017;37.812;-122.286;2023-09-19T02:02:00;24.60;59.40
72883;DHT22;61017;37.812;-122.286;2023-09-19T02:03:34;24.40;59.50
72883;DHT22;61017;37.812;-122.286;2023-09-19T02:05:06;24.30;60.60
72883;DHT22;61017;37.812;-122.286;2023-09-19T02:06:41;24.20;61.40
72883;DHT22;61017;37.812;-122.286;2023-09-19T02:08:16;24.10;61.50
72883;DHT22;61017;37.812;-122.286;2023-09-19T02:09:48;24.00;62.30
72883;DHT22;61017;37.812;-122.286;2023-09-19T02:11:20;23.90;62.80
72883;DHT22;61017;37.812;-122.286;2023-09-19T02:12:52;23.80;63.40
72883;DHT22;61017;37.812;-122.286;2023-09-19T02:14:23;23.80;64.30
72883;DHT22;61017;37.812;-122.286;2023-09-19T02:15:55;23.70;64.60
72883;DHT22;61017;37.812;-122.286;2023-09-19T02:17:27;23.70;65.10
72883;DHT22;61017;37.812;-122.286;2023-09-19T02:18:58;23.60;65.60
72883;DHT22;61017;37.812;-122.286;2023-09-19T02:20:31;23.60;65.90
72883;DHT22;61017;37.812;-122.286;2023-09-19T02:22:03;23.50;67.00
72883;DHT22;61017;37.812;-122.286;2023-09-19T02:23:34;23.50;67.00
72883;DHT22;61017;37.812;-122.286;2023-09-19T02:25:06;23.50;67.20
72883;DHT22;61017;37.812;-122.286;2023-09-19T02:26:38;23.40;68.40
72883;DHT22;61017;37.812;-122.286;2023-09-19T02:28:09;23.40;68.10
72883;DHT22;61017;37.812;-122.286;2023-09-19T02:29:41;23.30;68.10
72883;DHT22;61017;37.812;-122.286;2023-09-19T02:31:13;23.30;68.20
72883;DHT22;61017;37.812;-122.286;2023-09-19T02:32:45;23.30;69.20
72883;DHT22;61017;37.812;-122.286;2023-09-19T02:34:16;23.30;69.30
72883;DHT22;61017;37.812;-122.286;2023-09-19T02:35:48;23.20;69.30
72883;DHT22;61017;37.812;-122.286;2023-09-19T02:37:19;23.20;69.80
72883;DHT22;61017;37.812;-122.286;2023-09-19T02:38:51;23.20;70.10
72883;DHT22;61017;37.812;-122.286;2023-09-19T02:40:24;23.20;70.20
72883;DHT22;61017;37.812;-122.286;2023-09-19T02:41:55;23.10;70.50
72883;DHT22;61017;37.812;-122.286;2023-09-19T02:43:27;23.10;70.70
72883;DHT22;61017;37.812;-122.286;2023-09-19T02:44:59;23.10;70.80
72883;DHT22;61017;37.812;-122.286;2023-09-19T02:46:30;23.10;71.00
72883;DHT22;61017;37.812;-122.286;2023-09-19T02:48:02;23.00;71.30
72883;DHT22;61017;37.812;-122.286;2023-09-19T02:49:33;23.00;71.40
72883;DHT22;61017;37.812;-122.286;2023-09-19T02:51:05;23.00;71.60
72883;DHT22;61017;37.812;-122.286;2023-09-19T02:52:37;23.00;71.70
72883;DHT22;61017;37.812;-122.286;2023-09-19T02:54:08;23.00;71.80
72883;DHT22;61017;37.812;-122.286;2023-09-19T02:55:40;23.00;71.90
72883;DHT22;61017;37.812;-122.286;2023-09-19T02:57:12;22.90;72.00
72883;DHT22;61017;37.812;-122.286;2023-09-19T02:58:43;22.90;72.20
72883;DHT22;61017;37.812;-122.286;2023-09-19T03:00:17;22.90;72.50
72883;DHT22;61017;37.812;-122.286;2023-09-19T03:01:49;22.90;72.50
72883;DHT22;61017;37.812;-122.286;2023-09-19T03:03:20;22.90;72.50
72883;DHT22;61017;37.812;-122.286;2023-09-19T03:04:52;22.90;72.80
72883;DHT22;61017;37.812;-122.286;2023-09-19T03:06:23;22.80;73.10
72883;DHT22;61017;37.812;-122.286;2023-09-19T03:07:55;22.80;72.90
72883;DHT22;61017;37.812;-122.286;2023-09-19T03:09:26;22.80;73.10
72883;DHT22;61017;37.812;-122.286;2023-09-19T03:10:58;22.80;73.20
72883;DHT22;61017;37.812;-122.286;2023-09-19T03:12:30;22.80;73.40
72883;DHT22;61017;37.812;-122.286;2023-09-19T03:14:01;22.80;73.30
72883;DHT22;61017;37.812;-122.286;2023-09-19T03:15:33;22.70;73.00
72883;DHT22;61017;37.812;-122.286;2023-09-19T03:17:05;22.70;73.50
72883;DHT22;61017;37.812;-122.286;2023-09-19T03:18:37;22.80;73.50
72883;DHT22;61017;37.812;-122.286;2023-09-19T03:20:09;22.80;73.50
72883;DHT22;61017;37.812;-122.286;2023-09-19T03:21:40;22.70;73.30
72883;DHT22;61017;37.812;-122.286;2023-09-19T03:23:12;22.80;73.50
72883;DHT22;61017;37.812;-122.286;2023-09-19T03:24:43;22.80;73.30
72883;DHT22;61017;37.812;-122.286;2023-09-19T03:26:15;22.80;73.30
72883;DHT22;61017;37.812;-122.286;2023-09-19T03:27:46;22.80;73.50
72883;DHT22;61017;37.812;-122.286;2023-09-19T03:29:18;22.80;73.60
72883;DHT22;61017;37.812;-122.286;2023-09-19T03:31:03;22.80;73.60
72883;DHT22;61017;37.812;-122.286;2023-09-19T03:32:35;22.80;73.80
72883;DHT22;61017;37.812;-122.286;2023-09-19T03:34:07;22.80;73.90
72883;DHT22;61017;37.812;-122.286;2023-09-19T03:35:40;22.80;73.90
72883;DHT22;61017;37.812;-122.286;2023-09-19T03:37:11;22.80;74.10
72883;DHT22;61017;37.812;-122.286;2023-09-19T03:38:43;22.80;74.10
72883;DHT22;61017;37.812;-122.286;2023-09-19T03:40:15;22.80;74.30
72883;DHT22;61017;37.812;-122.286;2023-09-19T03:41:46;22.70;74.20
72883;DHT22;61017;37.812;-122.286;2023-09-19T03:43:18;22.70;74.50
72883;DHT22;61017;37.812;-122.286;2023-09-19T03:44:49;22.70;74.20
72883;DHT22;61017;37.812;-122.286;2023-09-19T03:46:21;22.70;74.70
72883;DHT22;61017;37.812;-122.286;2023-09-19T03:47:52;22.70;74.00
72883;DHT22;61017;37.812;-122.286;2023-09-19T03:49:24;22.70;74.20
72883;DHT22;61017;37.812;-122.286;2023-09-19T03:50:55;22.70;74.50
72883;DHT22;61017;37.812;-122.286;2023-09-19T03:52:27;22.70;74.60
72883;DHT22;61017;37.812;-122.286;2023-09-19T03:53:58;22.70;74.80
72883;DHT22;61017;37.812;-122.286;2023-09-19T03:55:30;22.70;74.90
72883;DHT22;61017;37.812;-122.286;2023-09-19T03:57:01;22.60;74.80
72883;DHT22;61017;37.812;-122.286;2023-09-19T03:58:33;22.60;74.90
72883;DHT22;61017;37.812;-122.286;2023-09-19T04:00:05;22.60;75.80
72883;DHT22;61017;37.812;-122.286;2023-09-19T04:01:37;22.60;75.10
72883;DHT22;61017;37.812;-122.286;2023-09-19T04:03:09;22.60;75.20
72883;DHT22;61017;37.812;-122.286;2023-09-19T04:04:40;22.60;76.00
72883;DHT22;61017;37.812;-122.286;2023-09-19T04:06:15;22.60;75.50
72883;DHT22;61017;37.812;-122.286;2023-09-19T04:07:47;22.50;75.40
72883;DHT22;61017;37.812;-122.286;2023-09-19T04:09:19;22.50;75.40
72883;DHT22;61017;37.812;-122.286;2023-09-19T04:10:50;22.50;75.50
72883;DHT22;61017;37.812;-122.286;2023-09-19T04:12:22;22.50;75.50
72883;DHT22;61017;37.812;-122.286;2023-09-19T04:13:53;22.50;75.70
72883;DHT22;61017;37.812;-122.286;2023-09-19T04:15:25;22.50;75.80
72883;DHT22;61017;37.812;-122.286;2023-09-19T04:16:56;22.50;75.80
72883;DHT22;61017;37.812;-122.286;2023-09-19T04:18:28;22.50;75.80
72883;DHT22;61017;37.812;-122.286;2023-09-19T04:20:00;22.40;75.80
72883;DHT22;61017;37.812;-122.286;2023-09-19T04:21:31;22.50;75.90
72883;DHT22;61017;37.812;-122.286;2023-09-19T04:23:03;22.40;75.80
72883;DHT22;61017;37.812;-122.286;2023-09-19T04:24:34;22.40;75.90
72883;DHT22;61017;37.812;-122.286;2023-09-19T04:26:06;22.40;76.00
72883;DHT22;61017;37.812;-122.286;2023-09-19T04:27:38;22.40;76.10
72883;DHT22;61017;37.812;-122.286;2023-09-19T04:29:09;22.40;76.00
72883;DHT22;61017;37.812;-122.286;2023-09-19T04:30:41;22.40;76.00
72883;DHT22;61017;37.812;-122.286;2023-09-19T04:32:12;22.40;76.10
72883;DHT22;61017;37.812;-122.286;2023-09-19T04:33:44;22.40;76.30
72883;DHT22;61017;37.812;-122.286;2023-09-19T04:35:16;22.40;76.40
72883;DHT22;61017;37.812;-122.286;2023-09-19T04:36:47;22.30;76.30
72883;DHT22;61017;37.812;-122.286;2023-09-19T04:38:19;22.30;76.30
72883;DHT22;61017;37.812;-122.286;2023-09-19T04:39:51;22.30;76.50
72883;DHT22;61017;37.812;-122.286;2023-09-19T04:41:23;22.30;76.40
72883;DHT22;61017;37.812;-122.286;2023-09-19T04:42:55;22.30;76.40
72883;DHT22;61017;37.812;-122.286;2023-09-19T04:44:27;22.30;76.40
72883;DHT22;61017;37.812;-122.286;2023-09-19T04:45:58;22.30;76.50
72883;DHT22;61017;37.812;-122.286;2023-09-19T04:47:30;22.30;76.50
72883;DHT22;61017;37.812;-122.286;2023-09-19T04:49:02;22.30;76.50
72883;DHT22;61017;37.812;-122.286;2023-09-19T04:50:33;22.30;76.70
72883;DHT22;61017;37.812;-122.286;2023-09-19T04:52:05;22.30;76.60
72883;DHT22;61017;37.812;-122.286;2023-09-19T04:53:37;22.30;76.80
72883;DHT22;61017;37.812;-122.286;2023-09-19T04:55:17;22.30;77.00
72883;DHT22;61017;37.812;-122.286;2023-09-19T04:56:49;22.30;76.90
72883;DHT22;61017;37.812;-122.286;2023-09-19T04:58:21;22.20;76.60
72883;DHT22;61017;37.812;-122.286;2023-09-19T04:59:53;22.30;74.60
72883;DHT22;61017;37.812;-122.286;2023-09-19T05:01:25;22.30;72.20
72883;DHT22;61017;37.812;-122.286;2023-09-19T05:02:57;22.50;70.30
72883;DHT22;61017;37.812;-122.286;2023-09-19T05:04:28;22.70;68.40
72883;DHT22;61017;37.812;-122.286;2023-09-19T05:06:00;22.90;67.20
72883;DHT22;61017;37.812;-122.286;2023-09-19T05:07:32;23.00;66.00
72883;DHT22;61017;37.812;-122.286;2023-09-19T05:09:03;23.20;65.10
72883;DHT22;61017;37.812;-122.286;2023-09-19T05:10:35;23.30;63.60
72883;DHT22;61017;37.812;-122.286;2023-09-19T05:12:07;23.50;62.50
72883;DHT22;61017;37.812;-122.286;2023-09-19T05:13:39;23.60;62.10
72883;DHT22;61017;37.812;-122.286;2023-09-19T05:15:10;23.70;61.10
72883;DHT22;61017;37.812;-122.286;2023-09-19T05:16:42;23.80;60.50
72883;DHT22;61017;37.812;-122.286;2023-09-19T05:18:13;23.90;60.00
72883;DHT22;61017;37.812;-122.286;2023-09-19T05:19:45;23.90;59.40
72883;DHT22;61017;37.812;-122.286;2023-09-19T05:21:16;24.00;59.30
72883;DHT22;61017;37.812;-122.286;2023-09-19T05:22:48;24.00;58.80
72883;DHT22;61017;37.812;-122.286;2023-09-19T05:24:20;24.00;58.50
72883;DHT22;61017;37.812;-122.286;2023-09-19T05:25:51;24.10;58.20
72883;DHT22;61017;37.812;-122.286;2023-09-19T05:27:23;24.10;58.00
72883;DHT22;61017;37.812;-122.286;2023-09-19T05:28:54;24.10;57.60
72883;DHT22;61017;37.812;-122.286;2023-09-19T05:30:26;24.20;57.50
72883;DHT22;61017;37.812;-122.286;2023-09-19T05:31:58;24.20;57.30
72883;DHT22;61017;37.812;-122.286;2023-09-19T05:33:29;24.20;57.20
72883;DHT22;61017;37.812;-122.286;2023-09-19T05:35:01;24.20;57.10
72883;DHT22;61017;37.812;-122.286;2023-09-19T05:36:32;24.30;56.70
72883;DHT22;61017;37.812;-122.286;2023-09-19T05:38:04;24.20;56.80
72883;DHT22;61017;37.812;-122.286;2023-09-19T05:39:35;24.20;56.50
72883;DHT22;61017;37.812;-122.286;2023-09-19T05:41:07;24.30;56.60
72883;DHT22;61017;37.812;-122.286;2023-09-19T05:42:39;24.30;56.40
72883;DHT22;61017;37.812;-122.286;2023-09-19T05:44:10;24.30;56.40
72883;DHT22;61017;37.812;-122.286;2023-09-19T05:45:42;24.30;56.10
72883;DHT22;61017;37.812;-122.286;2023-09-19T05:47:13;24.40;56.10
72883;DHT22;61017;37.812;-122.286;2023-09-19T05:48:45;24.40;55.90
72883;DHT22;61017;37.812;-122.286;2023-09-19T05:50:17;24.40;55.90
72883;DHT22;61017;37.812;-122.286;2023-09-19T05:51:48;24.40;55.70
72883;DHT22;61017;37.812;-122.286;2023-09-19T05:53:20;24.40;55.70
72883;DHT22;61017;37.812;-122.286;2023-09-19T05:54:51;24.40;55.50
72883;DHT22;61017;37.812;-122.286;2023-09-19T05:56:23;24.40;55.50
72883;DHT22;61017;37.812;-122.286;2023-09-19T05:57:55;24.40;55.30
72883;DHT22;61017;37.812;-122.286;2023-09-19T05:59:27;24.50;55.20
72883;DHT22;61017;37.812;-122.286;2023-09-19T06:00:58;24.50;55.20
72883;DHT22;61017;37.812;-122.286;2023-09-19T06:02:30;24.40;55.20
72883;DHT22;61017;37.812;-122.286;2023-09-19T06:04:01;24.40;55.20
72883;DHT22;61017;37.812;-122.286;2023-09-19T06:05:33;24.50;55.20
72883;DHT22;61017;37.812;-122.286;2023-09-19T06:07:05;24.40;55.20
72883;DHT22;61017;37.812;-122.286;2023-09-19T06:08:36;24.50;55.10
72883;DHT22;61017;37.812;-122.286;2023-09-19T06:10:08;24.50;55.00
72883;DHT22;61017;37.812;-122.286;2023-09-19T06:11:42;24.40;55.10
72883;DHT22;61017;37.812;-122.286;2023-09-19T06:13:15;24.50;55.00
72883;DHT22;61017;37.812;-122.286;2023-09-19T06:14:46;24.50;55.00
72883;DHT22;61017;37.812;-122.286;2023-09-19T06:16:18;24.50;55.00
72883;DHT22;61017;37.812;-122.286;2023-09-19T06:17:51;24.50;54.80
72883;DHT22;61017;37.812;-122.286;2023-09-19T06:19:23;24.50;54.80
72883;DHT22;61017;37.812;-122.286;2023-09-19T06:20:54;24.40;54.80
72883;DHT22;61017;37.812;-122.286;2023-09-19T06:22:26;24.50;54.70
72883;DHT22;61017;37.812;-122.286;2023-09-19T06:23:58;24.50;54.90
72883;DHT22;61017;37.812;-122.286;2023-09-19T06:25:30;24.50;54.70
72883;DHT22;61017;37.812;-122.286;2023-09-19T06:27:01;24.50;54.60
72883;DHT22;61017;37.812;-122.286;2023-09-19T06:28:33;24.50;54.60
72883;DHT22;61017;37.812;-122.286;2023-09-19T06:30:05;24.50;54.70
72883;DHT22;61017;37.812;-122.286;2023-09-19T06:31:39;24.50;54.50
72883;DHT22;61017;37.812;-122.286;2023-09-19T06:33:11;24.50;54.60
72883;DHT22;61017;37.812;-122.286;2023-09-19T06:34:42;24.50;54.50
72883;DHT22;61017;37.812;-122.286;2023-09-19T06:36:14;24.50;54.40
72883;DHT22;61017;37.812;-122.286;2023-09-19T06:37:45;24.50;54.40
72883;DHT22;61017;37.812;-122.286;2023-09-19T06:39:17;24.60;54.30
72883;DHT22;61017;37.812;-122.286;2023-09-19T06:40:49;24.60;54.20
72883;DHT22;61017;37.812;-122.286;2023-09-19T06:42:22;24.50;54.40
72883;DHT22;61017;37.812;-122.286;2023-09-19T06:43:54;24.50;54.20
72883;DHT22;61017;37.812;-122.286;2023-09-19T06:45:26;24.60;54.20
72883;DHT22;61017;37.812;-122.286;2023-09-19T06:46:57;24.50;54.20
72883;DHT22;61017;37.812;-122.286;2023-09-19T06:48:29;24.50;54.20
72883;DHT22;61017;37.812;-122.286;2023-09-19T06:50:01;24.60;54.20
72883;DHT22;61017;37.812;-122.286;2023-09-19T06:51:33;24.60;54.10
72883;DHT22;61017;37.812;-122.286;2023-09-19T06:53:04;24.50;54.20
72883;DHT22;61017;37.812;-122.286;2023-09-19T06:54:36;24.60;54.20
72883;DHT22;61017;37.812;-122.286;2023-09-19T06:56:07;24.60;54.00
72883;DHT22;61017;37.812;-122.286;2023-09-19T06:57:39;24.60;53.90
72883;DHT22;61017;37.812;-122.286;2023-09-19T06:59:11;24.60;54.20
72883;DHT22;61017;37.812;-122.286;2023-09-19T07:00:43;24.60;53.90
72883;DHT22;61017;37.812;-122.286;2023-09-19T07:02:14;24.60;53.80
72883;DHT22;61017;37.812;-122.286;2023-09-19T07:03:46;24.60;54.00
72883;DHT22;61017;37.812;-122.286;2023-09-19T07:05:17;24.60;53.80
72883;DHT22;61017;37.812;-122.286;2023-09-19T07:06:52;24.60;54.00
72883;DHT22;61017;37.812;-122.286;2023-09-19T07:08:24;24.60;53.80
72883;DHT22;61017;37.812;-122.286;2023-09-19T07:09:55;24.60;53.80
72883;DHT22;61017;37.812;-122.286;2023-09-19T07:11:27;24.60;54.00
72883;DHT22;61017;37.812;-122.286;2023-09-19T07:13:02;24.60;53.80
72883;DHT22;61017;37.812;-122.286;2023-09-19T07:14:34;24.60;53.80
72883;DHT22;61017;37.812;-122.286;2023-09-19T07:16:05;24.60;53.80
72883;DHT22;61017;37.812;-122.286;2023-09-19T07:17:37;24.60;53.90
72883;DHT22;61017;37.812;-122.286;2023-09-19T07:19:08;24.60;53.80
72883;DHT22;61017;37.812;-122.286;2023-09-19T07:20:40;24.60;53.80
72883;DHT22;61017;37.812;-122.286;2023-09-19T07:22:12;24.60;53.80
72883;DHT22;61017;37.812;-122.286;2023-09-19T07:23:43;24.60;53.70
72883;DHT22;61017;37.812;-122.286;2023-09-19T07:25:15;24.60;53.70
72883;DHT22;61017;37.812;-122.286;2023-09-19T07:26:46;24.60;53.70
72883;DHT22;61017;37.812;-122.286;2023-09-19T07:28:18;24.60;53.50
72883;DHT22;61017;37.812;-122.286;2023-09-19T07:29:52;24.60;53.60
72883;DHT22;61017;37.812;-122.286;2023-09-19T07:31:24;24.60;53.70
72883;DHT22;61017;37.812;-122.286;2023-09-19T07:32:55;24.60;53.50
72883;DHT22;61017;37.812;-122.286;2023-09-19T07:34:27;24.60;53.90
72883;DHT22;61017;37.812;-122.286;2023-09-19T07:35:58;24.70;53.60
72883;DHT22;61017;37.812;-122.286;2023-09-19T07:37:30;24.60;53.50
72883;DHT22;61017;37.812;-122.286;2023-09-19T07:39:02;24.60;53.70
72883;DHT22;61017;37.812;-122.286;2023-09-19T07:40:33;24.60;54.20
72883;DHT22;61017;37.812;-122.286;2023-09-19T07:42:05;24.60;53.60
72883;DHT22;61017;37.812;-122.286;2023-09-19T07:43:37;24.60;53.40
72883;DHT22;61017;37.812;-122.286;2023-09-19T07:45:09;24.60;53.40
72883;DHT22;61017;37.812;-122.286;2023-09-19T07:46:40;24.60;53.30
72883;DHT22;61017;37.812;-122.286;2023-09-19T07:48:12;24.60;53.50
72883;DHT22;61017;37.812;-122.286;2023-09-19T07:49:47;24.60;53.30
72883;DHT22;61017;37.812;-122.286;2023-09-19T07:51:18;24.60;53.30
72883;DHT22;61017;37.812;-122.286;2023-09-19T07:52:50;24.60;53.40
72883;DHT22;61017;37.812;-122.286;2023-09-19T07:54:22;24.60;53.30
72883;DHT22;61017;37.812;-122.286;2023-09-19T07:56:01;24.60;53.30
72883;DHT22;61017;37.812;-122.286;2023-09-19T07:57:32;24.60;53.40
72883;DHT22;61017;37.812;-122.286;2023-09-19T07:59:04;24.50;54.90
72883;DHT22;61017;37.812;-122.286;2023-09-19T08:00:35;24.30;56.30
72883;DHT22;61017;37.812;-122.286;2023-09-19T08:02:07;24.10;57.30
72883;DHT22;61017;37.812;-122.286;2023-09-19T08:03:38;23.80;58.50
72883;DHT22;61017;37.812;-122.286;2023-09-19T08:05:11;23.70;58.70
72883;DHT22;61017;37.812;-122.286;2023-09-19T08:06:42;23.50;58.80
72883;DHT22;61017;37.812;-122.286;2023-09-19T08:08:14;23.40;59.10
72883;DHT22;61017;37.812;-122.286;2023-09-19T08:09:46;23.30;59.70
72883;DHT22;61017;37.812;-122.286;2023-09-19T08:11:17;23.30;60.30
72883;DHT22;61017;37.812;-122.286;2023-09-19T08:12:50;23.20;61.50
72883;DHT22;61017;37.812;-122.286;2023-09-19T08:14:21;23.20;62.10
72883;DHT22;61017;37.812;-122.286;2023-09-19T08:15:53;23.10;62.70
72883;DHT22;61017;37.812;-122.286;2023-09-19T08:17:24;23.10;63.20
72883;DHT22;61017;37.812;-122.286;2023-09-19T08:18:56;23.00;63.60
72883;DHT22;61017;37.812;-122.286;2023-09-19T08:20:27;23.00;64.30
72883;DHT22;61017;37.812;-122.286;2023-09-19T08:22:00;22.90;64.50
72883;DHT22;61017;37.812;-122.286;2023-09-19T08:23:32;22.90;64.90
72883;DHT22;61017;37.812;-122.286;2023-09-19T08:25:04;22.90;65.30
72883;DHT22;61017;37.812;-122.286;2023-09-19T08:26:36;22.80;65.70
72883;DHT22;61017;37.812;-122.286;2023-09-19T08:28:07;22.80;66.40
72883;DHT22;61017;37.812;-122.286;2023-09-19T08:29:39;22.70;66.60
72883;DHT22;61017;37.812;-122.286;2023-09-19T08:31:11;22.70;67.20
72883;DHT22;61017;37.812;-122.286;2023-09-19T08:32:42;22.70;66.80
72883;DHT22;61017;37.812;-122.286;2023-09-19T08:34:14;22.70;67.10
72883;DHT22;61017;37.812;-122.286;2023-09-19T08:35:45;22.70;67.60
72883;DHT22;61017;37.812;-122.286;2023-09-19T08:37:17;22.70;68.00
72883;DHT22;61017;37.812;-122.286;2023-09-19T08:38:48;22.70;68.10
72883;DHT22;61017;37.812;-122.286;2023-09-19T08:40:20;22.60;67.90
72883;DHT22;61017;37.812;-122.286;2023-09-19T08:50:04;22.50;69.50
72883;DHT22;61017;37.812;-122.286;2023-09-19T08:51:43;22.50;70.00
72883;DHT22;61017;37.812;-122.286;2023-09-19T08:53:26;22.50;69.90
72883;DHT22;61017;37.812;-122.286;2023-09-19T08:55:00;22.50;70.10
72883;DHT22;61017;37.812;-122.286;2023-09-19T08:56:33;22.50;70.20
72883;DHT22;61017;37.812;-122.286;2023-09-19T08:58:08;22.40;70.30
72883;DHT22;61017;37.812;-122.286;2023-09-19T08:59:42;22.40;70.80
72883;DHT22;61017;37.812;-122.286;2023-09-19T09:01:17;22.40;71.10
72883;DHT22;61017;37.812;-122.286;2023-09-19T09:02:50;22.30;70.90
72883;DHT22;61017;37.812;-122.286;2023-09-19T09:04:22;22.30;71.20
72883;DHT22;61017;37.812;-122.286;2023-09-19T09:05:54;22.30;71.20
72883;DHT22;61017;37.812;-122.286;2023-09-19T09:07:26;22.30;71.50
72883;DHT22;61017;37.812;-122.286;2023-09-19T09:08:58;22.30;71.80
72883;DHT22;61017;37.812;-122.286;2023-09-19T09:10:30;22.30;71.60
72883;DHT22;61017;37.812;-122.286;2023-09-19T09:12:02;22.30;71.60
72883;DHT22;61017;37.812;-122.286;2023-09-19T09:13:36;22.30;71.80
72883;DHT22;61017;37.812;-122.286;2023-09-19T09:15:08;22.30;71.90
72883;DHT22;61017;37.812;-122.286;2023-09-19T09:16:39;22.30;71.90
72883;DHT22;61017;37.812;-122.286;2023-09-19T09:18:11;22.30;72.20
72883;DHT22;61017;37.812;-122.286;2023-09-19T09:19:43;22.30;72.10
72883;DHT22;61017;37.812;-122.286;2023-09-19T09:21:14;22.30;72.20
72883;DHT22;61017;37.812;-122.286;2023-09-19T09:22:53;22.20;72.70
72883;DHT22;61017;37.812;-122.286;2023-09-19T09:24:31;22.20;72.80
72883;DHT22;61017;37.812;-122.286;2023-09-19T09:26:03;22.20;73.10
72883;DHT22;61017;37.812;-122.286;2023-09-19T09:27:34;22.20;73.10
72883;DHT22;61017;37.812;-122.286;2023-09-19T09:29:06;22.20;73.30
72883;DHT22;61017;37.812;-122.286;2023-09-19T09:30:37;22.20;72.80
72883;DHT22;61017;37.812;-122.286;2023-09-19T09:32:25;22.20;73.00
72883;DHT22;61017;37.812;-122.286;2023-09-19T09:33:57;22.20;72.90
72883;DHT22;61017;37.812;-122.286;2023-09-19T09:35:28;22.20;73.70
72883;DHT22;61017;37.812;-122.286;2023-09-19T09:37:00;22.10;73.60